sensor_id;sensor_type;location;lat;lon;timestamp;temperature;humidity
3172;DHT22;1597;51.572;6.992;2023-08-07T00:00:47;13.80;99.90
3172;DHT22;1597;51.572;6.992;2023-08-07T00:03:13;13.70;99.90
3172;DHT22;1597;51.572;6.992;2023-08-07T00:05:48;13.70;99.90
3172;DHT22;1597;51.572;6.992;2023-08-07T00:08:14;13.70;99.90
3172;DHT22;1597;51.572;6.992;2023-08-07T00:10:40;13.80;99.90
3172;DHT22;1597;51.572;6.992;2023-08-07T00:13:06;13.80;99.90
3172;DHT22;1597;51.572;6.992;2023-08-07T00:15:32;13.80;99.90
3172;DHT22;1597;51.572;6.992;2023-08-07T00:17:59;13.80;99.90
3172;DHT22;1597;51.572;6.992;2023-08-07T00:20:25;13.90;99.90
3172;DHT22;1597;51.572;6.992;2023-08-07T00:22:51;13.90;99.90
3172;DHT22;1597;51.572;6.992;2023-08-07T00:25:17;13.90;99.90
3172;DHT22;1597;51.572;6.992;2023-08-07T00:27:43;13.90;99.90
3172;DHT22;1597;51.572;6.992;2023-08-07T00:30:09;13.90;99.90
3172;DHT22;1597;51.572;6.992;2023-08-07T00:32:35;13.80;99.90
3172;DHT22;1597;51.572;6.992;2023-08-07T00:35:01;13.80;99.90
3172;DHT22;1597;51.572;6.992;2023-08-07T00:37:27;13.80;99.90
3172;DHT22;1597;51.572;6.992;2023-08-07T00:39:53;13.80;99.90
3172;DHT22;1597;51.572;6.992;2023-08-07T00:42:18;13.80;99.90
3172;DHT22;1597;51.572;6.992;2023-08-07T00:44:44;13.80;99.90
3172;DHT22;1597;51.572;6.992;2023-08-07T00:47:10;13.90;99.90
3172;DHT22;1597;51.572;6.992;2023-08-07T00:49:36;13.90;99.90
3172;DHT22;1597;51.572;6.992;2023-08-07T00:52:03;13.80;99.90
3172;DHT22;1597;51.572;6.992;2023-08-07T00:54:29;13.90;99.90
3172;DHT22;1597;51.572;6.992;2023-08-07T00:56:58;13.90;99.90
3172;DHT22;1597;51.572;6.992;2023-08-07T00:59:32;14.00;99.90
3172;DHT22;1597;51.572;6.992;2023-08-07T01:01:59;14.00;99.90
3172;DHT22;1597;51.572;6.992;2023-08-07T01:04:26;14.00;99.90
3172;DHT22;1597;51.572;6.992;2023-08-07T01:06:51;13.90;99.90
3172;DHT22;1597;51.572;6.992;2023-08-07T01:09:17;13.90;99.90
3172;DHT22;1597;51.572;6.992;2023-08-07T01:11:50;13.90;99.90
3172;DHT22;1597;51.572;6.992;2023-08-07T01:14:49;13.80;99.90
3172;DHT22;1597;51.572;6.992;2023-08-07T01:17:22;13.80;99.90
3172;DHT22;1597;51.572;6.992;2023-08-07T01:19:50;13.90;99.90
3172;DHT22;1597;51.572;6.992;2023-08-07T01:22:18;13.80;99.90
3172;DHT22;1597;51.572;6.992;2023-08-07T01:24:49;13.90;99.90
3172;DHT22;1597;51.572;6.992;2023-08-07T01:35:55;13.70;99.90
3172;DHT22;1597;51.572;6.992;2023-08-07T01:38:24;13.70;99.90
3172;DHT22;1597;51.572;6.992;2023-08-07T01:40:52;13.70;99.90
3172;DHT22;1597;51.572;6.992;2023-08-07T01:43:24;13.70;99.90
3172;DHT22;1597;51.572;6.992;2023-08-07T01:45:50;13.70;99.90
3172;DHT22;1597;51.572;6.992;2023-08-07T01:48:16;13.70;99.90
3172;DHT22;1597;51.572;6.992;2023-08-07T01:50:44;13.70;99.90
3172;DHT22;1597;51.572;6.992;2023-08-07T01:53:10;13.70;99.90
3172;DHT22;1597;51.572;6.992;2023-08-07T01:55:36;13.70;99.90
3172;DHT22;1597;51.572;6.992;2023-08-07T01:58:02;13.70;99.90
3172;DHT22;1597;51.572;6.992;2023-08-07T02:00:28;13.60;99.90
3172;DHT22;1597;51.572;6.992;2023-08-07T02:02:54;13.50;99.90
3172;DHT22;1597;51.572;6.992;2023-08-07T02:05:19;13.60;99.90
3172;DHT22;1597;51.572;6.992;2023-08-07T02:07:48;13.60;99.90
3172;DHT22;1597;51.572;6.992;2023-08-07T02:10:14;13.60;99.90
3172;DHT22;1597;51.572;6.992;2023-08-07T02:12:40;13.60;99.90
3172;DHT22;1597;51.572;6.992;2023-08-07T02:15:06;13.60;99.90
3172;DHT22;1597;51.572;6.992;2023-08-07T02:17:32;13.60;99.90
3172;DHT22;1597;51.572;6.992;2023-08-07T02:20:10;13.60;99.90
3172;DHT22;1597;51.572;6.992;2023-08-07T02:22:42;13.60;99.90
3172;DHT22;1597;51.572;6.992;2023-08-07T02:25:08;13.60;99.90
3172;DHT22;1597;51.572;6.992;2023-08-07T02:27:37;13.60;99.90
3172;DHT22;1597;51.572;6.992;2023-08-07T02:30:05;13.60;99.90
3172;DHT22;1597;51.572;6.992;2023-08-07T02:32:31;13.60;99.90
3172;DHT22;1597;51.572;6.992;2023-08-07T02:34:57;13.60;99.90
3172;DHT22;1597;51.572;6.992;2023-08-07T02:37:29;13.60;99.90
3172;DHT22;1597;51.572;6.992;2023-08-07T02:39:55;13.60;99.90
3172;DHT22;1597;51.572;6.992;2023-08-07T02:42:26;13.60;99.90
3172;DHT22;1597;51.572;6.992;2023-08-07T02:44:55;13.70;99.90
3172;DHT22;1597;51.572;6.992;2023-08-07T02:47:21;13.70;99.90
3172;DHT22;1597;51.572;6.992;2023-08-07T02:49:46;13.60;99.90
3172;DHT22;1597;51.572;6.992;2023-08-07T02:52:15;13.60;99.90
3172;DHT22;1597;51.572;6.992;2023-08-07T02:54:44;13.60;99.90
3172;DHT22;1597;51.572;6.992;2023-08-07T02:57:13;13.70;99.90
3172;DHT22;1597;51.572;6.992;2023-08-07T03:00:05;13.70;99.90
3172;DHT22;1597;51.572;6.992;2023-08-07T03:02:31;13.70;99.90
3172;DHT22;1597;51.572;6.992;2023-08-07T03:04:57;13.70;99.90
3172;DHT22;1597;51.572;6.992;2023-08-07T03:07:28;13.60;99.90
3172;DHT22;1597;51.572;6.992;2023-08-07T03:09:54;13.60;99.90
3172;DHT22;1597;51.572;6.992;2023-08-07T03:12:20;13.60;99.90
3172;DHT22;1597;51.572;6.992;2023-08-07T03:14:46;13.60;99.90
3172;DHT22;1597;51.572;6.992;2023-08-07T03:17:12;13.60;99.90
3172;DHT22;1597;51.572;6.992;2023-08-07T03:19:41;13.60;99.90
3172;DHT22;1597;51.572;6.992;2023-08-07T03:22:08;13.50;99.90
3172;DHT22;1597;51.572;6.992;2023-08-07T03:24:34;13.50;99.90
3172;DHT22;1597;51.572;6.992;2023-08-07T03:26:59;13.50;99.90
3172;DHT22;1597;51.572;6.992;2023-08-07T03:29:28;13.50;99.90
3172;DHT22;1597;51.572;6.992;2023-08-07T03:31:54;13.60;99.90
3172;DHT22;1597;51.572;6.992;2023-08-07T03:34:23;13.50;99.90
3172;DHT22;1597;51.572;6.992;2023-08-07T03:36:48;13.50;99.90
3172;DHT22;1597;51.572;6.992;2023-08-07T03:39:14;13.60;99.90
3172;DHT22;1597;51.572;6.992;2023-08-07T03:41:40;13.50;99.90
3172;DHT22;1597;51.572;6.992;2023-08-07T03:44:15;13.50;99.90
3172;DHT22;1597;51.572;6.992;2023-08-07T03:46:41;13.50;99.90
3172;DHT22;1597;51.572;6.992;2023-08-07T03:49:09;13.50;99.90
3172;DHT22;1597;51.572;6.992;2023-08-07T03:51:35;13.50;99.90
3172;DHT22;1597;51.572;6.992;2023-08-07T03:54:06;13.50;99.90
3172;DHT22;1597;51.572;6.992;2023-08-07T03:56:32;13.50;99.90
3172;DHT22;1597;51.572;6.992;2023-08-07T03:59:02;13.50;99.90
3172;DHT22;1597;51.572;6.992;2023-08-07T04:01:43;13.50;99.90
3172;DHT22;1597;51.572;6.992;2023-08-07T04:04:12;13.50;99.90
3172;DHT22;1597;51.572;6.992;2023-08-07T04:06:39;13.50;99.90
3172;DHT22;1597;51.572;6.992;2023-08-07T04:09:08;13.40;99.90
3172;DHT22;1597;51.572;6.992;2023-08-07T04:11:36;13.40;99.90
3172;DHT22;1597;51.572;6.992;2023-08-07T04:14:03;13.30;99.90
3172;DHT22;1597;51.572;6.992;2023-08-07T04:16:30;13.40;99.90
3172;DHT22;1597;51.572;6.992;2023-08-07T04:18:56;13.40;99.90
3172;DHT22;1597;51.572;6.992;2023-08-07T04:21:22;13.40;99.90
3172;DHT22;1597;51.572;6.992;2023-08-07T04:23:48;13.40;99.90
3172;DHT22;1597;51.572;6.992;2023-08-07T04:26:14;13.40;99.90
3172;DHT22;1597;51.572;6.992;2023-08-07T04:28:40;13.30;99.90
3172;DHT22;1597;51.572;6.992;2023-08-07T04:31:06;13.40;99.90
3172;DHT22;1597;51.572;6.992;2023-08-07T04:33:32;13.40;99.90
3172;DHT22;1597;51.572;6.992;2023-08-07T04:35:57;13.40;99.90
3172;DHT22;1597;51.572;6.992;2023-08-07T04:38:23;13.40;99.90
3172;DHT22;1597;51.572;6.992;2023-08-07T04:40:49;13.40;99.90
3172;DHT22;1597;51.572;6.992;2023-08-07T04:43:17;13.40;99.90
3172;DHT22;1597;51.572;6.992;2023-08-07T04:45:43;13.40;99.90
3172;DHT22;1597;51.572;6.992;2023-08-07T04:48:15;13.40;99.90
3172;DHT22;1597;51.572;6.992;2023-08-07T04:50:43;13.30;99.90
3172;DHT22;1597;51.572;6.992;2023-08-07T04:53:09;13.40;99.90
3172;DHT22;1597;51.572;6.992;2023-08-07T04:55:34;13.40;99.90
3172;DHT22;1597;51.572;6.992;2023-08-07T04:58:03;13.40;99.90
3172;DHT22;1597;51.572;6.992;2023-08-07T05:00:57;13.40;99.90
3172;DHT22;1597;51.572;6.992;2023-08-07T05:03:24;13.40;99.90
3172;DHT22;1597;51.572;6.992;2023-08-07T05:06:00;13.40;99.90
3172;DHT22;1597;51.572;6.992;2023-08-07T05:12:10;13.40;99.90
3172;DHT22;1597;51.572;6.992;2023-08-07T05:14:39;13.40;99.90
3172;DHT22;1597;51.572;6.992;2023-08-07T05:17:23;13.40;99.90
3172;DHT22;1597;51.572;6.992;2023-08-07T05:19:49;13.40;99.90
3172;DHT22;1597;51.572;6.992;2023-08-07T05:22:15;13.40;99.90
3172;DHT22;1597;51.572;6.992;2023-08-07T05:24:41;13.40;99.90
3172;DHT22;1597;51.572;6.992;2023-08-07T05:27:10;13.40;99.90
3172;DHT22;1597;51.572;6.992;2023-08-07T05:29:36;13.40;99.90
3172;DHT22;1597;51.572;6.992;2023-08-07T05:32:15;13.50;99.90
3172;DHT22;1597;51.572;6.992;2023-08-07T05:34:41;13.50;99.90
3172;DHT22;1597;51.572;6.992;2023-08-07T05:37:10;13.50;99.90
3172;DHT22;1597;51.572;6.992;2023-08-07T05:39:36;13.50;99.90
3172;DHT22;1597;51.572;6.992;2023-08-07T05:42:02;13.50;99.90
3172;DHT22;1597;51.572;6.992;2023-08-07T05:44:28;13.40;99.90
3172;DHT22;1597;51.572;6.992;2023-08-07T05:46:54;13.50;99.90
3172;DHT22;1597;51.572;6.992;2023-08-07T05:49:20;13.50;99.90
3172;DHT22;1597;51.572;6.992;2023-08-07T05:51:46;12.80;99.90
3172;DHT22;1597;51.572;6.992;2023-08-07T05:54:12;13.30;99.90
3172;DHT22;1597;51.572;6.992;2023-08-07T05:56:41;13.30;99.90
3172;DHT22;1597;51.572;6.992;2023-08-07T05:59:06;13.30;99.90
3172;DHT22;1597;51.572;6.992;2023-08-07T06:01:32;13.30;99.90
3172;DHT22;1597;51.572;6.992;2023-08-07T06:03:58;13.30;99.90
3172;DHT22;1597;51.572;6.992;2023-08-07T06:06:27;13.40;99.90
3172;DHT22;1597;51.572;6.992;2023-08-07T06:08:59;13.40;99.90
3172;DHT22;1597;51.572;6.992;2023-08-07T06:11:27;13.40;99.90
3172;DHT22;1597;51.572;6.992;2023-08-07T06:13:53;13.40;99.90
3172;DHT22;1597;51.572;6.992;2023-08-07T06:16:19;13.40;99.90
3172;DHT22;1597;51.572;6.992;2023-08-07T06:18:45;13.40;99.90
3172;DHT22;1597;51.572;6.992;2023-08-07T06:21:11;13.50;99.90
3172;DHT22;1597;51.572;6.992;2023-08-07T06:23:38;13.50;99.90
3172;DHT22;1597;51.572;6.992;2023-08-07T06:26:07;13.50;99.90
3172;DHT22;1597;51.572;6.992;2023-08-07T06:28:34;13.60;99.90
3172;DHT22;1597;51.572;6.992;2023-08-07T06:31:11;13.60;99.90
3172;DHT22;1597;51.572;6.992;2023-08-07T06:33:38;13.60;99.90
3172;DHT22;1597;51.572;6.992;2023-08-07T06:36:05;13.70;99.90
3172;DHT22;1597;51.572;6.992;2023-08-07T06:38:31;13.70;99.90
3172;DHT22;1597;51.572;6.992;2023-08-07T06:40:57;13.70;99.90
3172;DHT22;1597;51.572;6.992;2023-08-07T06:43:23;13.70;99.90
3172;DHT22;1597;51.572;6.992;2023-08-07T06:45:53;13.70;99.90
3172;DHT22;1597;51.572;6.992;2023-08-07T06:48:19;13.70;99.90
3172;DHT22;1597;51.572;6.992;2023-08-07T06:50:49;13.70;99.90
3172;DHT22;1597;51.572;6.992;2023-08-07T06:53:15;13.70;99.90
3172;DHT22;1597;51.572;6.992;2023-08-07T06:55:42;13.60;99.90
3172;DHT22;1597;51.572;6.992;2023-08-07T06:58:09;13.60;99.90
3172;DHT22;1597;51.572;6.992;2023-08-07T07:00:35;13.60;99.90
3172;DHT22;1597;51.572;6.992;2023-08-07T07:03:02;13.70;99.90
3172;DHT22;1597;51.572;6.992;2023-08-07T07:05:28;13.70;99.90
3172;DHT22;1597;51.572;6.992;2023-08-07T07:07:56;13.60;99.90
3172;DHT22;1597;51.572;6.992;2023-08-07T07:10:22;13.60;99.90
3172;DHT22;1597;51.572;6.992;2023-08-07T07:12:48;13.60;99.90
3172;DHT22;1597;51.572;6.992;2023-08-07T07:15:15;13.70;99.90
3172;DHT22;1597;51.572;6.992;2023-08-07T07:17:41;13.70;99.90
3172;DHT22;1597;51.572;6.992;2023-08-07T07:20:07;13.80;99.90
3172;DHT22;1597;51.572;6.992;2023-08-07T07:22:35;13.90;99.90
3172;DHT22;1597;51.572;6.992;2023-08-07T07:25:10;13.90;99.90
3172;DHT22;1597;51.572;6.992;2023-08-07T07:27:36;13.90;99.90
3172;DHT22;1597;51.572;6.992;2023-08-07T07:30:02;13.90;99.90
3172;DHT22;1597;51.572;6.992;2023-08-07T07:32:29;13.90;99.90
3172;DHT22;1597;51.572;6.992;2023-08-07T07:34:55;13.90;99.90
3172;DHT22;1597;51.572;6.992;2023-08-07T07:37:21;13.90;99.90
3172;DHT22;1597;51.572;6.992;2023-08-07T07:39:47;13.90;99.90
3172;DHT22;1597;51.572;6.992;2023-08-07T07:42:12;13.90;99.90
3172;DHT22;1597;51.572;6.992;2023-08-07T07:44:38;13.90;99.90
3172;DHT22;1597;51.572;6.992;2023-08-07T07:47:05;14.00;99.90
3172;DHT22;1597;51.572;6.992;2023-08-07T07:49:32;14.10;99.90
3172;DHT22;1597;51.572;6.992;2023-08-07T07:51:58;14.00;99.90
3172;DHT22;1597;51.572;6.992;2023-08-07T07:54:27;14.00;99.90
3172;DHT22;1597;51.572;6.992;2023-08-07T07:56:54;14.00;99.90
3172;DHT22;1597;51.572;6.992;2023-08-07T07:59:25;14.00;99.90
3172;DHT22;1597;51.572;6.992;2023-08-07T08:01:50;14.00;99.90
3172;DHT22;1597;51.572;6.992;2023-08-07T08:04:16;14.10;99.90
3172;DHT22;1597;51.572;6.992;2023-08-07T08:06:43;14.10;99.90
3172;DHT22;1597;51.572;6.992;2023-08-07T08:09:08;14.10;99.90
3172;DHT22;1597;51.572;6.992;2023-08-07T08:11:37;14.10;99.90
3172;DHT22;1597;51.572;6.992;2023-08-07T08:14:03;14.10;99.90
3172;DHT22;1597;51.572;6.992;2023-08-07T08:16:29;14.10;99.90
3172;DHT22;1597;51.572;6.992;2023-08-07T08:18:54;14.20;99.90
3172;DHT22;1597;51.572;6.992;2023-08-07T08:21:20;14.20;99.90
3172;DHT22;1597;51.572;6.992;2023-08-07T08:23:46;14.20;99.90
3172;DHT22;1597;51.572;6.992;2023-08-07T08:26:12;14.10;99.90
3172;DHT22;1597;51.572;6.992;2023-08-07T08:28:40;14.10;99.90
3172;DHT22;1597;51.572;6.992;2023-08-07T08:31:06;14.10;99.90
3172;DHT22;1597;51.572;6.992;2023-08-07T08:33:32;14.20;99.90
3172;DHT22;1597;51.572;6.992;2023-08-07T08:35:58;14.20;99.90
3172;DHT22;1597;51.572;6.992;2023-08-07T08:38:23;14.20;99.90
3172;DHT22;1597;51.572;6.992;2023-08-07T08:40:51;14.30;99.90
3172;DHT22;1597;51.572;6.992;2023-08-07T08:43:18;14.30;99.90
3172;DHT22;1597;51.572;6.992;2023-08-07T08:45:45;14.40;99.90
3172;DHT22;1597;51.572;6.992;2023-08-07T08:48:18;14.60;99.90
3172;DHT22;1597;51.572;6.992;2023-08-07T08:50:49;14.70;99.90
3172;DHT22;1597;51.572;6.992;2023-08-07T08:53:16;14.70;99.90
3172;DHT22;1597;51.572;6.992;2023-08-07T08:58:58;15.00;99.90
3172;DHT22;1597;51.572;6.992;2023-08-07T09:01:25;15.10;99.90
3172;DHT22;1597;51.572;6.992;2023-08-07T09:03:53;15.20;99.90
3172;DHT22;1597;51.572;6.992;2023-08-07T09:06:22;15.30;99.90
3172;DHT22;1597;51.572;6.992;2023-08-07T09:11:55;15.30;99.90
3172;DHT22;1597;51.572;6.992;2023-08-07T09:14:26;15.40;99.90
3172;DHT22;1597;51.572;6.992;2023-08-07T09:16:55;15.50;99.90
3172;DHT22;1597;51.572;6.992;2023-08-07T09:19:21;15.60;99.90
3172;DHT22;1597;51.572;6.992;2023-08-07T09:22:05;15.70;99.90
3172;DHT22;1597;51.572;6.992;2023-08-07T09:24:34;15.70;99.90
3172;DHT22;1597;51.572;6.992;2023-08-07T09:27:07;15.80;99.90
3172;DHT22;1597;51.572;6.992;2023-08-07T09:29:35;15.90;99.90
3172;DHT22;1597;51.572;6.992;2023-08-07T09:32:27;16.00;99.90
3172;DHT22;1597;51.572;6.992;2023-08-07T09:34:53;16.00;99.90
3172;DHT22;1597;51.572;6.992;2023-08-07T09:37:19;15.90;99.90
3172;DHT22;1597;51.572;6.992;2023-08-07T09:39:51;15.90;99.90
3172;DHT22;1597;51.572;6.992;2023-08-07T09:42:17;15.80;99.90
3172;DHT22;1597;51.572;6.992;2023-08-07T09:44:45;15.90;99.90
3172;DHT22;1597;51.572;6.992;2023-08-07T09:47:18;15.90;99.90
3172;DHT22;1597;51.572;6.992;2023-08-07T09:49:45;15.70;99.90
3172;DHT22;1597;51.572;6.992;2023-08-07T09:52:13;15.30;99.90
3172;DHT22;1597;51.572;6.992;2023-08-07T09:54:41;15.20;99.90
3172;DHT22;1597;51.572;6.992;2023-08-07T09:57:07;15.00;99.90
3172;DHT22;1597;51.572;6.992;2023-08-07T09:59:33;14.90;99.90
3172;DHT22;1597;51.572;6.992;2023-08-07T10:02:01;14.90;99.90
3172;DHT22;1597;51.572;6.992;2023-08-07T10:04:28;15.00;99.90
3172;DHT22;1597;51.572;6.992;2023-08-07T10:06:54;15.20;99.90
3172;DHT22;1597;51.572;6.992;2023-08-07T10:09:21;15.30;99.90
3172;DHT22;1597;51.572;6.992;2023-08-07T10:11:49;15.50;99.90
3172;DHT22;1597;51.572;6.992;2023-08-07T10:14:22;15.60;99.90
3172;DHT22;1597;51.572;6.992;2023-08-07T10:16:49;15.80;99.90
3172;DHT22;1597;51.572;6.992;2023-08-07T10:19:15;15.80;99.90
3172;DHT22;1597;51.572;6.992;2023-08-07T10:21:41;15.90;99.90
3172;DHT22;1597;51.572;6.992;2023-08-07T10:24:09;15.90;99.90
3172;DHT22;1597;51.572;6.992;2023-08-07T10:26:42;15.80;99.90
3172;DHT22;1597;51.572;6.992;2023-08-07T10:29:18;15.80;99.90
3172;DHT22;1597;51.572;6.992;2023-08-07T10:31:50;15.90;99.90
3172;DHT22;1597;51.572;6.992;2023-08-07T10:34:49;15.90;99.90
3172;DHT22;1597;51.572;6.992;2023-08-07T10:37:41;16.00;99.90
3172;DHT22;1597;51.572;6.992;2023-08-07T10:40:14;16.00;99.90
3172;DHT22;1597;51.572;6.992;2023-08-07T10:42:55;16.10;99.90
3172;DHT22;1597;51.572;6.992;2023-08-07T10:45:23;16.20;99.90
3172;DHT22;1597;51.572;6.992;2023-08-07T10:50:48;16.30;99.90
3172;DHT22;1597;51.572;6.992;2023-08-07T10:53:41;16.40;99.90
3172;DHT22;1597;51.572;6.992;2023-08-07T10:56:18;16.50;99.90
3172;DHT22;1597;51.572;6.992;2023-08-07T10:58:51;16.60;99.90
3172;DHT22;1597;51.572;6.992;2023-08-07T11:03:57;16.50;99.90
3172;DHT22;1597;51.572;6.992;2023-08-07T11:06:28;16.60;99.90
3172;DHT22;1597;51.572;6.992;2023-08-07T11:09:00;16.70;99.90
3172;DHT22;1597;51.572;6.992;2023-08-07T11:11:49;16.80;99.90
3172;DHT22;1597;51.572;6.992;2023-08-07T11:14:19;16.90;99.90
3172;DHT22;1597;51.572;6.992;2023-08-07T11:16:48;17.00;99.90
3172;DHT22;1597;51.572;6.992;2023-08-07T11:19:17;17.00;99.90
3172;DHT22;1597;51.572;6.992;2023-08-07T11:21:46;17.00;99.90
3172;DHT22;1597;51.572;6.992;2023-08-07T11:24:14;17.00;99.90
3172;DHT22;1597;51.572;6.992;2023-08-07T11:26:45;16.90;97.90
3172;DHT22;1597;51.572;6.992;2023-08-07T11:29:16;16.80;99.90
3172;DHT22;1597;51.572;6.992;2023-08-07T11:31:43;16.90;99.90
3172;DHT22;1597;51.572;6.992;2023-08-07T11:34:10;16.90;98.60
3172;DHT22;1597;51.572;6.992;2023-08-07T11:36:43;17.10;92.40
3172;DHT22;1597;51.572;6.992;2023-08-07T11:39:09;17.10;59.20
3172;DHT22;1597;51.572;6.992;2023-08-07T11:41:40;17.20;41.40
3172;DHT22;1597;51.572;6.992;2023-08-07T11:44:11;17.30;46.10
3172;DHT22;1597;51.572;6.992;2023-08-07T11:46:40;17.40;41.20
3172;DHT22;1597;51.572;6.992;2023-08-07T11:49:07;17.60;48.40
3172;DHT22;1597;51.572;6.992;2023-08-07T11:51:35;17.80;34.30
3172;DHT22;1597;51.572;6.992;2023-08-07T11:54:04;17.80;24.70
3172;DHT22;1597;51.572;6.992;2023-08-07T11:56:30;17.80;21.10
3172;DHT22;1597;51.572;6.992;2023-08-07T11:58:57;17.80;19.80
3172;DHT22;1597;51.572;6.992;2023-08-07T12:01:24;17.70;19.80
3172;DHT22;1597;51.572;6.992;2023-08-07T12:06:34;17.70;28.20
3172;DHT22;1597;51.572;6.992;2023-08-07T12:09:06;17.80;28.20
3172;DHT22;1597;51.572;6.992;2023-08-07T12:11:38;17.90;26.10
3172;DHT22;1597;51.572;6.992;2023-08-07T12:14:04;17.90;24.10
3172;DHT22;1597;51.572;6.992;2023-08-07T12:16:34;17.90;23.30
3172;DHT22;1597;51.572;6.992;2023-08-07T12:19:00;18.00;22.50
3172;DHT22;1597;51.572;6.992;2023-08-07T12:21:27;18.10;26.10
3172;DHT22;1597;51.572;6.992;2023-08-07T12:23:57;18.10;21.20
3172;DHT22;1597;51.572;6.992;2023-08-07T12:26:23;18.10;18.30
3172;DHT22;1597;51.572;6.992;2023-08-07T12:28:49;17.90;17.10
3172;DHT22;1597;51.572;6.992;2023-08-07T12:31:15;18.00;12.70
3172;DHT22;1597;51.572;6.992;2023-08-07T12:33:44;17.90;15.30
3172;DHT22;1597;51.572;6.992;2023-08-07T12:36:10;18.00;17.80
3172;DHT22;1597;51.572;6.992;2023-08-07T12:38:37;18.00;16.40
3172;DHT22;1597;51.572;6.992;2023-08-07T12:41:07;17.90;18.00
3172;DHT22;1597;51.572;6.992;2023-08-07T12:43:33;18.00;24.30
3172;DHT22;1597;51.572;6.992;2023-08-07T12:45:59;17.90;20.90
3172;DHT22;1597;51.572;6.992;2023-08-07T12:48:25;18.00;18.60
3172;DHT22;1597;51.572;6.992;2023-08-07T12:50:53;18.20;13.30
3172;DHT22;1597;51.572;6.992;2023-08-07T12:53:18;18.30;11.70
3172;DHT22;1597;51.572;6.992;2023-08-07T12:55:44;18.50;1.00
3172;DHT22;1597;51.572;6.992;2023-08-07T12:58:11;18.60;1.00
3172;DHT22;1597;51.572;6.992;2023-08-07T13:00:36;18.70;1.00
3172;DHT22;1597;51.572;6.992;2023-08-07T13:03:02;18.70;1.00
3172;DHT22;1597;51.572;6.992;2023-08-07T13:05:28;18.80;1.00
3172;DHT22;1597;51.572;6.992;2023-08-07T13:07:56;18.80;1.00
3172;DHT22;1597;51.572;6.992;2023-08-07T13:10:24;18.80;1.00
3172;DHT22;1597;51.572;6.992;2023-08-07T13:12:53;18.90;1.00
3172;DHT22;1597;51.572;6.992;2023-08-07T13:15:20;18.90;1.00
3172;DHT22;1597;51.572;6.992;2023-08-07T13:17:46;18.90;1.00
3172;DHT22;1597;51.572;6.992;2023-08-07T13:20:13;18.80;1.00
3172;DHT22;1597;51.572;6.992;2023-08-07T13:22:41;18.90;2.70
3172;DHT22;1597;51.572;6.992;2023-08-07T13:25:08;19.00;1.20
3172;DHT22;1597;51.572;6.992;2023-08-07T13:27:35;19.10;2.90
3172;DHT22;1597;51.572;6.992;2023-08-07T13:30:02;19.00;1.90
3172;DHT22;1597;51.572;6.992;2023-08-07T13:32:29;18.80;2.90
3172;DHT22;1597;51.572;6.992;2023-08-07T13:34:55;18.80;5.80
3172;DHT22;1597;51.572;6.992;2023-08-07T13:37:21;18.70;4.20
3172;DHT22;1597;51.572;6.992;2023-08-07T13:39:47;18.70;1.00
3172;DHT22;1597;51.572;6.992;2023-08-07T13:42:15;18.70;1.90
3172;DHT22;1597;51.572;6.992;2023-08-07T13:44:41;18.60;1.00
3172;DHT22;1597;51.572;6.992;2023-08-07T13:47:07;18.60;1.60
3172;DHT22;1597;51.572;6.992;2023-08-07T13:49:33;18.60;1.10
3172;DHT22;1597;51.572;6.992;2023-08-07T13:51:59;18.70;1.00
3172;DHT22;1597;51.572;6.992;2023-08-07T13:54:25;18.60;1.00
3172;DHT22;1597;51.572;6.992;2023-08-07T13:56:51;18.60;1.00
3172;DHT22;1597;51.572;6.992;2023-08-07T13:59:17;18.50;1.00
3172;DHT22;1597;51.572;6.992;2023-08-07T14:01:43;18.60;1.00
3172;DHT22;1597;51.572;6.992;2023-08-07T14:04:09;18.60;1.00
3172;DHT22;1597;51.572;6.992;2023-08-07T14:06:34;18.70;1.70
3172;DHT22;1597;51.572;6.992;2023-08-07T14:09:00;18.90;1.00
3172;DHT22;1597;51.572;6.992;2023-08-07T14:11:26;19.00;1.00
3172;DHT22;1597;51.572;6.992;2023-08-07T14:13:58;19.20;1.00
3172;DHT22;1597;51.572;6.992;2023-08-07T14:16:25;19.20;1.00
3172;DHT22;1597;51.572;6.992;2023-08-07T14:18:51;19.30;1.00
3172;DHT22;1597;51.572;6.992;2023-08-07T14:21:17;19.30;1.00
3172;DHT22;1597;51.572;6.992;2023-08-07T14:23:44;19.30;1.00
3172;DHT22;1597;51.572;6.992;2023-08-07T14:26:15;19.30;1.00
3172;DHT22;1597;51.572;6.992;2023-08-07T14:28:41;19.20;1.00
3172;DHT22;1597;51.572;6.992;2023-08-07T14:31:08;19.10;1.00
3172;DHT22;1597;51.572;6.992;2023-08-07T14:33:35;19.20;1.00
3172;DHT22;1597;51.572;6.992;2023-08-07T14:36:03;19.30;1.00
3172;DHT22;1597;51.572;6.992;2023-08-07T14:38:29;19.50;1.00
3172;DHT22;1597;51.572;6.992;2023-08-07T14:40:58;19.50;1.00
3172;DHT22;1597;51.572;6.992;2023-08-07T14:43:31;19.50;1.00
3172;DHT22;1597;51.572;6.992;2023-08-07T14:45:57;19.60;1.00
3172;DHT22;1597;51.572;6.992;2023-08-07T14:48:24;19.60;1.00
3172;DHT22;1597;51.572;6.992;2023-08-07T14:50:50;19.70;1.00
3172;DHT22;1597;51.572;6.992;2023-08-07T14:53:17;19.70;1.00
3172;DHT22;1597;51.572;6.992;2023-08-07T14:55:51;19.70;1.00
3172;DHT22;1597;51.572;6.992;2023-08-07T14:58:19;19.70;1.00
3172;DHT22;1597;51.572;6.992;2023-08-07T15:00:45;19.80;1.00
3172;DHT22;1597;51.572;6.992;2023-08-07T15:03:11;19.80;1.00
3172;DHT22;1597;51.572;6.992;2023-08-07T15:05:37;19.80;1.00
3172;DHT22;1597;51.572;6.992;2023-08-07T15:08:03;19.80;1.00
3172;DHT22;1597;51.572;6.992;2023-08-07T15:10:30;19.60;1.00
3172;DHT22;1597;51.572;6.992;2023-08-07T15:12:57;19.40;1.00
3172;DHT22;1597;51.572;6.992;2023-08-07T15:15:23;19.20;1.00
3172;DHT22;1597;51.572;6.992;2023-08-07T15:17:49;19.10;1.00
3172;DHT22;1597;51.572;6.992;2023-08-07T15:20:16;19.10;1.00
3172;DHT22;1597;51.572;6.992;2023-08-07T15:22:48;19.10;1.00
3172;DHT22;1597;51.572;6.992;2023-08-07T15:25:14;19.00;1.00
3172;DHT22;1597;51.572;6.992;2023-08-07T15:27:40;19.10;1.00
3172;DHT22;1597;51.572;6.992;2023-08-07T15:30:06;19.10;1.00
3172;DHT22;1597;51.572;6.992;2023-08-07T15:32:33;19.10;1.00
3172;DHT22;1597;51.572;6.992;2023-08-07T15:34:59;19.20;1.00
3172;DHT22;1597;51.572;6.992;2023-08-07T15:37:26;19.20;1.00
3172;DHT22;1597;51.572;6.992;2023-08-07T15:39:52;19.10;1.00
3172;DHT22;1597;51.572;6.992;2023-08-07T15:42:18;19.00;1.00
3172;DHT22;1597;51.572;6.992;2023-08-07T15:44:46;18.90;1.00
3172;DHT22;1597;51.572;6.992;2023-08-07T15:47:12;18.90;1.00
3172;DHT22;1597;51.572;6.992;2023-08-07T15:49:38;18.70;1.00
3172;DHT22;1597;51.572;6.992;2023-08-07T15:52:04;18.80;1.00
3172;DHT22;1597;51.572;6.992;2023-08-07T15:54:31;18.90;1.00
3172;DHT22;1597;51.572;6.992;2023-08-07T15:56:57;18.90;1.00
3172;DHT22;1597;51.572;6.992;2023-08-07T15:59:23;18.80;1.00
3172;DHT22;1597;51.572;6.992;2023-08-07T16:01:52;18.60;1.00
3172;DHT22;1597;51.572;6.992;2023-08-07T16:04:19;18.60;1.00
3172;DHT22;1597;51.572;6.992;2023-08-07T16:06:44;18.60;1.00
3172;DHT22;1597;51.572;6.992;2023-08-07T16:09:10;18.60;1.00
3172;DHT22;1597;51.572;6.992;2023-08-07T16:11:36;18.70;1.00
3172;DHT22;1597;51.572;6.992;2023-08-07T16:14:02;18.80;1.00
3172;DHT22;1597;51.572;6.992;2023-08-07T16:16:30;18.80;1.00
3172;DHT22;1597;51.572;6.992;2023-08-07T16:18:56;18.90;1.00
3172;DHT22;1597;51.572;6.992;2023-08-07T16:21:22;19.00;1.00
3172;DHT22;1597;51.572;6.992;2023-08-07T16:23:48;19.00;1.00
3172;DHT22;1597;51.572;6.992;2023-08-07T16:26:16;18.90;1.00
3172;DHT22;1597;51.572;6.992;2023-08-07T16:28:42;18.80;1.00
3172;DHT22;1597;51.572;6.992;2023-08-07T16:31:08;18.80;1.00
3172;DHT22;1597;51.572;6.992;2023-08-07T16:33:34;18.60;1.00
3172;DHT22;1597;51.572;6.992;2023-08-07T16:36:00;18.60;1.00